createdAt,value
2022-11-08T00:04:50.093Z,11.30
2022-11-08T00:07:35.558Z,11.40
2022-11-08T00:10:20.772Z,11.50
2022-11-08T00:18:06.680Z,11.70
2022-11-08T00:30:21.918Z,11.90
2022-11-08T00:32:48.662Z,12.00
2022-11-08T00:37:42.484Z,12.00
2022-11-08T00:40:10.117Z,12.10
2022-11-08T00:59:57.798Z,12.30
2022-11-08T01:04:51.615Z,12.40
2022-11-08T01:07:18.261Z,12.40
2022-11-08T01:12:12.009Z,12.40
2022-11-08T01:14:38.642Z,12.40
2022-11-08T01:19:32.324Z,12.50
2022-11-08T01:21:58.975Z,12.60
2022-11-08T01:26:52.676Z,12.60
2022-11-08T01:34:13.518Z,12.60
2022-11-08T01:39:07.218Z,12.70
2022-11-08T01:44:01.149Z,12.70
2022-11-08T01:46:42.576Z,12.70
2022-11-08T01:49:15.420Z,12.70
2022-11-08T01:51:51.677Z,12.70
2022-11-08T01:54:39.795Z,12.70
2022-11-08T01:57:10.754Z,12.70
2022-11-08T01:59:40.671Z,12.70
2022-11-08T02:02:08.797Z,12.70
2022-11-08T02:04:36.099Z,12.60
2022-11-08T02:07:04.163Z,12.50
2022-11-08T02:09:31.402Z,12.50
2022-11-08T02:11:58.334Z,12.50
2022-11-08T02:14:25.080Z,12.40
2022-11-08T02:19:31.763Z,12.30
2022-11-08T02:22:03.329Z,12.20
2022-11-08T02:26:58.658Z,11.90
2022-11-08T02:29:34.230Z,11.80
2022-11-08T02:32:02.553Z,12.20
2022-11-08T02:34:44.097Z,11.70
2022-11-08T02:37:13.334Z,11.60
2022-11-08T02:39:40.145Z,11.50
2022-11-08T02:42:06.804Z,11.50
2022-11-08T02:44:33.432Z,11.40
2022-11-08T02:47:00.103Z,11.40
2022-11-08T02:51:54.226Z,11.30
2022-11-08T02:56:48.205Z,11.30
2022-11-08T03:01:42.356Z,11.20
2022-11-08T03:06:36.378Z,11.10
2022-11-08T03:09:03.258Z,11.10
2022-11-08T03:13:57.134Z,11.00
2022-11-08T03:23:44.949Z,10.90
2022-11-08T03:26:11.602Z,10.80
2022-11-08T03:31:05.477Z,10.80
2022-11-08T03:33:32.172Z,10.80
2022-11-08T03:38:25.938Z,10.70
2022-11-08T03:48:13.846Z,10.70
2022-11-08T03:55:34.670Z,10.60
2022-11-08T04:00:29.875Z,10.60
2022-11-08T04:03:02.903Z,10.50
2022-11-08T04:08:00.550Z,10.50
2022-11-08T04:10:27.378Z,10.50
2022-11-08T04:15:40.062Z,10.40
2022-11-08T04:18:25.576Z,10.40
2022-11-08T04:23:38.181Z,10.30
2022-11-08T04:26:07.118Z,10.30
2022-11-08T04:28:35.637Z,10.20
2022-11-08T04:31:12.492Z,10.20
2022-11-08T04:33:39.657Z,10.20
2022-11-08T04:36:10.694Z,10.20
2022-11-08T04:41:13.365Z,10.20
2022-11-08T04:43:40.277Z,10.20
2022-11-08T04:46:12.247Z,10.10
2022-11-08T04:48:39.180Z,10.10
2022-11-08T04:51:14.493Z,10.10
2022-11-08T04:53:41.588Z,10.20
2022-11-08T04:56:10.727Z,10.10
2022-11-08T04:58:48.643Z,10.20
2022-11-08T05:01:20.518Z,10.20
2022-11-08T05:03:49.185Z,10.20
2022-11-08T05:06:21.421Z,10.10
2022-11-08T05:11:21.400Z,10.10
2022-11-08T05:16:22.405Z,10.10
2022-11-08T05:18:49.583Z,10.10
2022-11-08T05:21:37.485Z,10.10
2022-11-08T05:24:05.825Z,10.10
2022-11-08T05:26:35.039Z,10.10
2022-11-08T05:31:28.826Z,10.10
2022-11-08T05:36:22.586Z,10.10
2022-11-08T05:41:18.930Z,10.10
2022-11-08T05:43:47.509Z,10.00
2022-11-08T05:46:14.817Z,10.00
2022-11-08T05:48:46.878Z,10.10
2022-11-08T05:51:15.786Z,10.00
2022-11-08T05:53:42.731Z,10.00
2022-11-08T05:56:09.862Z,10.10
2022-11-08T05:58:37.177Z,10.10
2022-11-08T06:01:07.683Z,10.00
2022-11-08T06:03:35.637Z,10.00
2022-11-08T06:06:04.089Z,10.00
2022-11-08T06:11:09.720Z,10.00
2022-11-08T06:13:37.080Z,10.00
2022-11-08T06:16:06.622Z,10.00
2022-11-08T06:18:34.185Z,10.00
2022-11-08T06:21:02.338Z,10.00
2022-11-08T06:25:56.545Z,10.10
2022-11-08T06:35:45.425Z,10.30
2022-11-08T06:38:12.577Z,10.30
2022-11-08T06:40:39.840Z,10.30
2022-11-08T06:43:06.642Z,10.40
2022-11-08T06:48:02.988Z,10.40
2022-11-08T06:50:31.119Z,10.40
2022-11-08T06:52:58.291Z,10.40
2022-11-08T06:55:24.975Z,10.50
2022-11-08T06:57:52.272Z,10.50
2022-11-08T07:00:19.175Z,10.50
2022-11-08T07:02:46.232Z,10.50
2022-11-08T07:05:13.187Z,10.60
2022-11-08T07:12:34.441Z,10.60
2022-11-08T07:17:28.114Z,10.60
2022-11-08T07:19:54.770Z,10.80
2022-11-08T07:24:48.417Z,10.90
2022-11-08T07:29:42.131Z,11.00
2022-11-08T07:32:08.787Z,11.00
2022-11-08T07:41:57.269Z,11.00
2022-11-08T07:44:23.903Z,11.00
2022-11-08T07:49:17.595Z,11.00
2022-11-08T07:51:44.211Z,11.00
2022-11-08T08:01:32.111Z,11.10
2022-11-08T08:06:26.347Z,11.20
2022-11-08T08:11:20.016Z,11.40
2022-11-08T08:13:46.693Z,11.50
2022-11-08T08:18:40.972Z,11.70
2022-11-08T08:23:34.792Z,11.90
2022-11-08T08:26:03.169Z,12.00
2022-11-08T08:30:56.888Z,12.20
2022-11-08T08:33:34.249Z,12.30
2022-11-08T08:36:01.812Z,12.40
2022-11-08T08:40:55.783Z,12.60
2022-11-08T08:48:17.376Z,12.90
2022-11-08T08:50:44.018Z,12.90
2022-11-08T08:53:11.071Z,13.10
2022-11-08T08:55:39.893Z,13.20
2022-11-08T08:58:06.589Z,13.30
2022-11-08T09:03:20.742Z,13.40
2022-11-08T09:08:15.080Z,13.50
2022-11-08T09:10:42.341Z,13.60
2022-11-08T09:13:09.293Z,13.60
2022-11-08T09:15:36.146Z,13.60
2022-11-08T09:18:03.026Z,13.60
2022-11-08T09:20:29.814Z,13.50
2022-11-08T09:23:00.785Z,13.60
2022-11-08T09:25:27.490Z,13.60
2022-11-08T09:27:55.229Z,13.60
2022-11-08T09:30:21.938Z,13.60
2022-11-08T09:35:31.358Z,13.70
2022-11-08T09:37:59.045Z,13.70
2022-11-08T09:40:37.277Z,13.80
2022-11-08T09:43:12.415Z,13.70
2022-11-08T09:45:47.012Z,13.70
2022-11-08T09:48:44.146Z,13.70
2022-11-08T09:51:15.717Z,13.80
2022-11-08T09:53:51.607Z,13.60
2022-11-08T09:56:37.949Z,13.70
2022-11-08T09:59:28.511Z,13.70
2022-11-08T10:01:55.200Z,13.70
2022-11-08T10:04:26.019Z,13.70
2022-11-08T10:07:19.558Z,13.80
2022-11-08T10:10:01.231Z,13.80
2022-11-08T10:12:55.293Z,13.90
2022-11-08T10:15:29.932Z,14.00
2022-11-08T10:18:07.682Z,14.10
2022-11-08T10:21:05.118Z,14.10
2022-11-08T10:23:45.147Z,14.20
2022-11-08T10:28:47.442Z,14.30
2022-11-08T10:31:14.648Z,14.30
2022-11-08T10:33:54.025Z,14.40
2022-11-08T10:38:51.550Z,14.40
2022-11-08T10:41:21.631Z,14.50
2022-11-08T10:44:01.541Z,14.50
2022-11-08T10:46:44.949Z,14.50
2022-11-08T10:49:16.304Z,14.60
2022-11-08T10:51:48.459Z,14.60
2022-11-08T10:54:40.060Z,14.60
2022-11-08T10:57:06.702Z,14.70
2022-11-08T11:02:01.496Z,14.90
2022-11-08T11:04:34.859Z,15.00
2022-11-08T11:07:03.712Z,15.00
2022-11-08T11:12:06.556Z,15.10
2022-11-08T11:14:33.317Z,15.20
2022-11-08T11:17:06.159Z,15.30
2022-11-08T11:22:06.598Z,15.30
2022-11-08T11:24:35.978Z,15.20
2022-11-08T11:27:04.761Z,15.20
2022-11-08T11:29:33.755Z,15.20
2022-11-08T11:32:20.313Z,15.20
2022-11-08T11:34:55.219Z,15.30
2022-11-08T11:37:29.676Z,15.40
2022-11-08T11:40:21.008Z,15.40
2022-11-08T11:42:56.653Z,15.40
2022-11-08T11:45:36.789Z,15.50
2022-11-08T11:48:13.434Z,15.50
2022-11-08T11:50:44.355Z,15.70
2022-11-08T11:53:29.603Z,15.80
2022-11-08T11:56:30.491Z,15.80
2022-11-08T11:59:36.311Z,15.80
2022-11-08T12:04:42.043Z,15.80
2022-11-08T12:07:20.526Z,15.90
2022-11-08T12:10:23.145Z,15.90
2022-11-08T12:13:17.590Z,16.00
2022-11-08T12:16:06.544Z,16.00
2022-11-08T12:18:58.141Z,16.00
2022-11-08T12:24:05.415Z,16.10
2022-11-08T12:26:44.643Z,16.10
2022-11-08T12:29:22.748Z,16.10
2022-11-08T12:32:01.755Z,16.10
2022-11-08T12:35:02.435Z,16.20
2022-11-08T12:37:44.564Z,16.30
2022-11-08T12:40:20.842Z,16.30
2022-11-08T12:45:23.993Z,16.40
2022-11-08T12:48:03.966Z,16.40
2022-11-08T12:53:23.484Z,16.40
2022-11-08T12:55:52.851Z,16.40
2022-11-08T12:58:36.669Z,16.30
2022-11-08T13:01:07.769Z,16.10
2022-11-08T13:03:43.251Z,16.00
2022-11-08T13:06:19.352Z,15.90
2022-11-08T13:08:52.220Z,15.90
2022-11-08T13:11:29.775Z,15.80
2022-11-08T13:13:58.534Z,15.80
2022-11-08T13:16:34.955Z,15.80
2022-11-08T13:21:34.795Z,15.80
2022-11-08T13:26:43.049Z,15.80
2022-11-08T13:29:25.440Z,15.70
2022-11-08T13:32:01.750Z,15.70
2022-11-08T13:37:29.441Z,15.60
2022-11-08T13:40:22.159Z,15.50
2022-11-08T13:45:18.680Z,15.50
2022-11-08T13:47:47.980Z,15.50
2022-11-08T13:50:31.280Z,15.50
2022-11-08T13:53:20.387Z,15.50
2022-11-08T13:58:32.644Z,15.50
2022-11-08T14:01:00.563Z,15.50
2022-11-08T14:03:33.524Z,15.50
2022-11-08T14:06:05.842Z,15.40
2022-11-08T14:08:35.477Z,15.40
2022-11-08T14:11:17.375Z,15.40
2022-11-08T14:14:15.869Z,15.40
2022-11-08T14:16:48.917Z,15.20
2022-11-08T14:19:27.044Z,15.40
2022-11-08T14:21:58.871Z,15.40
2022-11-08T14:24:46.048Z,15.40
2022-11-08T14:27:14.587Z,15.40
2022-11-08T14:29:41.555Z,15.40
2022-11-08T14:32:17.554Z,15.40
2022-11-08T14:37:26.896Z,15.30
2022-11-08T14:39:54.182Z,15.40
2022-11-08T14:42:24.302Z,15.40
2022-11-08T14:44:54.078Z,15.40
2022-11-08T14:47:25.027Z,15.40
2022-11-08T14:52:36.997Z,15.60
2022-11-08T14:55:11.514Z,15.60
2022-11-08T14:57:44.098Z,15.70
2022-11-08T15:00:21.368Z,15.70
2022-11-08T15:02:54.380Z,15.70
2022-11-08T15:05:30.294Z,15.70
2022-11-08T15:07:58.978Z,15.70
2022-11-08T15:10:26.705Z,15.70
2022-11-08T15:12:53.947Z,15.70
2022-11-08T15:15:32.994Z,15.70
2022-11-08T15:18:15.414Z,15.70
2022-11-08T15:21:07.111Z,15.70
2022-11-08T15:23:44.051Z,15.60
2022-11-08T15:26:24.151Z,15.60
2022-11-08T15:29:17.161Z,15.60
2022-11-08T15:32:01.136Z,15.60
2022-11-08T15:34:39.735Z,15.60
2022-11-08T15:37:29.717Z,15.60
2022-11-08T15:42:24.006Z,15.50
2022-11-08T15:45:06.456Z,15.60
2022-11-08T15:47:42.393Z,15.60
2022-11-08T15:50:25.677Z,15.60
2022-11-08T15:52:55.099Z,15.60
2022-11-08T15:55:29.479Z,15.60
2022-11-08T15:57:57.864Z,15.60
2022-11-08T16:00:31.528Z,15.60
2022-11-08T16:02:58.839Z,15.60
2022-11-08T16:05:27.683Z,15.60
2022-11-08T16:07:55.107Z,15.60
2022-11-08T16:10:38.114Z,15.60
2022-11-08T16:13:05.759Z,15.60
2022-11-08T16:15:35.185Z,15.60
2022-11-08T16:18:02.697Z,15.50
2022-11-08T16:22:58.104Z,15.50
2022-11-08T16:25:26.618Z,15.50
2022-11-08T16:28:17.668Z,15.50
2022-11-08T16:30:47.106Z,15.50
2022-11-08T16:33:22.394Z,15.50
2022-11-08T16:35:49.670Z,15.50
2022-11-08T16:38:22.243Z,15.50
2022-11-08T16:48:30.386Z,15.40
2022-11-08T16:51:02.729Z,15.40
2022-11-08T16:53:30.195Z,15.40
2022-11-08T17:00:52.507Z,15.30
2022-11-08T17:03:22.622Z,15.30
2022-11-08T17:05:49.493Z,15.30
2022-11-08T17:10:44.418Z,15.30
2022-11-08T17:13:15.818Z,15.30
2022-11-08T17:15:43.165Z,15.30
2022-11-08T17:18:13.289Z,15.30
2022-11-08T17:20:40.871Z,15.30
2022-11-08T17:23:09.024Z,15.30
2022-11-08T17:25:37.504Z,15.20
2022-11-08T17:28:04.414Z,15.20
2022-11-08T17:32:58.545Z,15.20
2022-11-08T17:37:53.646Z,15.10
2022-11-08T17:40:20.577Z,15.10
2022-11-08T17:42:47.232Z,15.10
2022-11-08T17:47:40.987Z,15.00
2022-11-08T17:50:09.926Z,15.10
2022-11-08T17:52:36.777Z,15.10
2022-11-08T17:55:03.811Z,15.10
2022-11-08T18:04:54.704Z,15.20
2022-11-08T18:07:21.468Z,15.20
2022-11-08T18:12:15.381Z,15.20
2022-11-08T18:14:42.145Z,15.10
2022-11-08T18:19:37.163Z,15.20
2022-11-08T18:22:04.711Z,15.20
2022-11-08T18:26:58.803Z,15.30
2022-11-08T18:31:52.720Z,15.50
2022-11-08T18:41:46.682Z,15.40
2022-11-08T18:44:13.464Z,15.40
2022-11-08T18:49:11.127Z,15.40
2022-11-08T18:51:38.059Z,15.40
2022-11-08T18:54:04.774Z,15.40
2022-11-08T19:06:19.876Z,15.30
2022-11-08T19:08:46.852Z,15.30
2022-11-08T19:11:14.486Z,15.30
2022-11-08T19:13:41.993Z,15.30
2022-11-08T19:16:13.457Z,15.30
2022-11-08T19:18:41.001Z,15.30
2022-11-08T19:21:14.252Z,15.30
2022-11-08T19:23:41.508Z,15.30
2022-11-08T19:26:12.420Z,15.40
2022-11-08T19:28:42.194Z,15.30
2022-11-08T19:31:09.064Z,15.30
2022-11-08T19:36:13.797Z,15.20
2022-11-08T19:38:40.929Z,15.10
2022-11-08T19:41:16.382Z,15.10
2022-11-08T19:46:16.687Z,15.10
2022-11-08T19:48:45.288Z,15.10
2022-11-08T19:51:14.767Z,15.20
2022-11-08T19:56:12.607Z,15.20
2022-11-08T19:58:39.610Z,15.20
2022-11-08T20:01:17.678Z,15.10
2022-11-08T20:03:44.778Z,15.10
2022-11-08T20:06:12.397Z,15.10
2022-11-08T20:08:39.368Z,15.00
2022-11-08T20:11:13.130Z,15.00
2022-11-08T20:16:10.905Z,15.00
2022-11-08T20:21:09.323Z,15.10
2022-11-08T20:23:36.771Z,15.00
2022-11-08T20:26:05.537Z,15.10
2022-11-08T20:31:05.488Z,15.10
2022-11-08T20:33:37.786Z,15.00
2022-11-08T20:36:06.303Z,15.00
2022-11-08T20:38:33.593Z,15.10
2022-11-08T20:41:00.769Z,15.10
2022-11-08T20:43:27.821Z,15.00
2022-11-08T20:46:00.062Z,15.00
2022-11-08T20:48:28.640Z,15.00
2022-11-08T20:50:59.821Z,15.00
2022-11-08T20:53:27.457Z,15.00
2022-11-08T20:56:09.116Z,14.90
2022-11-08T20:58:36.718Z,14.90
2022-11-08T21:01:05.482Z,14.90
2022-11-08T21:06:02.094Z,15.00
2022-11-08T21:13:46.305Z,15.00
2022-11-08T21:16:29.386Z,15.00
2022-11-08T21:21:25.737Z,15.10
2022-11-08T21:26:21.235Z,15.10
2022-11-08T21:31:15.839Z,15.10
2022-11-08T21:36:10.006Z,15.20
2022-11-08T21:38:37.777Z,15.20
2022-11-08T21:41:06.907Z,15.20
2022-11-08T21:43:37.731Z,15.20
2022-11-08T21:46:21.256Z,15.20
2022-11-08T21:48:53.011Z,15.20
2022-11-08T21:51:19.724Z,15.20
2022-11-08T21:56:27.937Z,15.20
2022-11-08T21:58:54.652Z,15.20
2022-11-08T22:03:56.481Z,15.20
2022-11-08T22:06:23.170Z,15.20
2022-11-08T22:08:49.957Z,15.20
2022-11-08T22:13:43.729Z,15.20
2022-11-08T22:21:42.843Z,15.10
2022-11-08T22:24:14.727Z,15.10
2022-11-08T22:26:41.767Z,15.10
2022-11-08T22:29:08.969Z,15.10
2022-11-08T22:31:36.162Z,15.00
2022-11-08T22:34:03.663Z,15.00
2022-11-08T22:43:52.292Z,15.10
2022-11-08T22:46:19.421Z,15.10
2022-11-08T22:48:46.442Z,15.10
2022-11-08T22:51:13.760Z,15.00
2022-11-08T22:53:41.274Z,15.00
2022-11-08T22:58:39.192Z,14.90
2022-11-08T23:01:15.741Z,14.90
2022-11-08T23:03:45.840Z,14.40
2022-11-08T23:08:40.158Z,14.80
2022-11-08T23:11:25.571Z,14.70
2022-11-08T23:16:41.744Z,14.70
2022-11-08T23:19:29.416Z,14.70
2022-11-08T23:22:14.754Z,14.70
2022-11-08T23:24:42.829Z,14.70
2022-11-08T23:27:29.460Z,14.70
2022-11-08T23:30:14.836Z,14.70
2022-11-08T23:32:43.788Z,14.70
2022-11-08T23:35:10.956Z,14.70
2022-11-08T23:40:28.251Z,14.70
2022-11-08T23:43:28.503Z,14.60
2022-11-08T23:45:55.617Z,14.60
2022-11-08T23:50:51.253Z,14.60
2022-11-08T23:53:19.304Z,14.60
2022-11-08T23:58:14.665Z,14.60
